Time;durP1;ratioP1;P1;durP2;ratioP2;P2;SDS_P1;SDS_P2;PMS_P1;PMS_P2;Temp;Humidity;BMP_temperature;BMP_pressure;BME280_temperature;BME280_humidity;BME280_pressure;Samples;Min_cycle;Max_cycle;Signal;HPM_P1;HPM_P2
2022/03/29 00:01:00;;;;;;;31.25;16.73;;;6.90;99.90;;;;;;5088032;28;20036;-66
2022/03/29 00:03:26;;;;;;;29.02;15.38;;;6.90;99.90;;;;;;5092077;28;20021;-67
2022/03/29 00:05:52;;;;;;;29.50;15.73;;;7.00;99.90;;;;;;5091171;28;20036;-67
2022/03/29 00:08:18;;;;;;;25.65;15.52;;;7.00;99.90;;;;;;5091690;28;20035;-66
2022/03/29 00:10:45;;;;;;;30.65;16.35;;;7.00;99.90;;;;;;5089395;28;20031;-66
2022/03/29 00:13:14;;;;;;;28.15;15.65;;;6.90;99.90;;;;;;5088464;28;20032;-67
2022/03/29 00:15:40;;;;;;;29.42;15.57;;;6.90;99.90;;;;;;5091884;28;20039;-66
2022/03/29 00:18:06;;;;;;;28.35;16.23;;;6.90;99.90;;;;;;5092393;28;20644;-67
2022/03/29 00:20:31;;;;;;;25.58;14.95;;;6.90;99.90;;;;;;5090312;28;20037;-67
2022/03/29 00:22:57;;;;;;;29.90;16.42;;;6.90;99.90;;;;;;5082683;28;20024;-66
2022/03/29 00:25:22;;;;;;;30.48;16.77;;;7.00;99.90;;;;;;5084473;28;20027;-67
2022/03/29 00:27:49;;;;;;;29.40;16.98;;;6.90;99.90;;;;;;5089322;28;20366;-66
2022/03/29 00:30:16;;;;;;;28.13;15.80;;;6.90;99.90;;;;;;5105897;28;20028;-67
2022/03/29 00:32:43;;;;;;;26.65;15.25;;;7.00;99.90;;;;;;5087551;28;20610;-67
2022/03/29 00:35:10;;;;;;;26.33;15.85;;;6.90;99.90;;;;;;5084821;28;20028;-66
2022/03/29 00:37:40;;;;;;;28.60;16.00;;;7.00;99.90;;;;;;5089901;28;20028;-67
2022/03/29 00:40:07;;;;;;;31.27;18.10;;;6.90;99.90;;;;;;5090859;28;20129;-66
2022/03/29 00:42:33;;;;;;;28.40;16.35;;;6.90;99.90;;;;;;5091225;28;20024;-67
2022/03/29 00:44:59;;;;;;;29.63;16.42;;;6.90;99.90;;;;;;5093062;28;20091;-67
2022/03/29 00:47:24;;;;;;;30.33;17.75;;;6.80;99.90;;;;;;5090318;28;20382;-67
2022/03/29 00:49:50;;;;;;;31.83;18.02;;;6.80;99.90;;;;;;5094063;28;20040;-67
2022/03/29 00:52:17;;;;;;;27.98;16.10;;;6.80;99.90;;;;;;5089453;28;20095;-67
2022/03/29 00:54:44;;;;;;;33.60;17.63;;;6.90;99.90;;;;;;5087208;28;20038;-66
2022/03/29 00:57:11;;;;;;;29.83;17.73;;;6.90;99.90;;;;;;5094387;28;20065;-67
2022/03/29 00:59:45;;;;;;;32.72;19.48;;;6.90;99.90;;;;;;5087314;28;20036;-67
2022/03/29 01:02:10;;;;;;;30.60;18.45;;;6.80;99.90;;;;;;5087644;28;20032;-67
2022/03/29 01:04:37;;;;;;;33.38;18.92;;;6.80;99.90;;;;;;5083833;28;20020;-67
2022/03/29 01:07:03;;;;;;;33.33;19.65;;;6.80;99.90;;;;;;5085862;28;20061;-67
2022/03/29 01:09:30;;;;;;;33.17;19.38;;;6.70;99.90;;;;;;5089176;28;20111;-67
2022/03/29 01:11:57;;;;;;;36.85;19.50;;;6.80;99.90;;;;;;5088573;28;20125;-67
2022/03/29 01:14:25;;;;;;;36.83;19.52;;;6.80;99.90;;;;;;5092340;28;20024;-67
2022/03/29 01:19:40;;;;;;;31.90;19.40;;;6.70;99.90;;;;;;5089911;28;20066;-67
2022/03/29 01:22:09;;;;;;;33.53;19.08;;;6.60;99.90;;;;;;5088798;28;20038;-67
2022/03/29 01:24:36;;;;;;;32.05;19.63;;;6.60;99.90;;;;;;5088520;28;20036;-67
2022/03/29 01:27:04;;;;;;;38.45;20.83;;;6.60;99.90;;;;;;5088692;28;20033;-67
2022/03/29 01:29:31;;;;;;;34.03;19.50;;;6.60;99.90;;;;;;5089637;28;20024;-66
2022/03/29 01:31:58;;;;;;;33.40;19.00;;;6.70;99.90;;;;;;5074610;28;20035;-66
2022/03/29 01:34:25;;;;;;;31.92;19.40;;;6.60;99.90;;;;;;5084894;28;20039;-66
2022/03/29 01:36:51;;;;;;;30.45;18.55;;;6.70;99.90;;;;;;5088595;28;20059;-67
2022/03/29 01:39:17;;;;;;;32.75;19.65;;;6.70;99.90;;;;;;5087058;28;20482;-67
2022/03/29 01:41:43;;;;;;;33.03;18.73;;;6.70;99.90;;;;;;5089612;28;20024;-66
2022/03/29 01:44:10;;;;;;;36.17;19.98;;;6.70;99.90;;;;;;5089038;28;20023;-66
2022/03/29 01:46:36;;;;;;;32.28;19.20;;;6.60;99.90;;;;;;5083753;28;20071;-67
2022/03/29 01:49:02;;;;;;;31.75;18.10;;;6.60;99.90;;;;;;5089587;28;20013;-67
2022/03/29 01:51:28;;;;;;;32.13;19.33;;;6.60;99.90;;;;;;5087746;28;20092;-66
2022/03/29 01:53:55;;;;;;;32.97;18.13;;;6.60;99.90;;;;;;5086310;28;20052;-67
2022/03/29 01:56:25;;;;;;;30.95;18.45;;;6.60;99.90;;;;;;5072563;28;20428;-67
2022/03/29 01:58:51;;;;;;;29.25;17.45;;;6.60;99.90;;;;;;5087979;28;20084;-67
2022/03/29 02:01:17;;;;;;;33.60;18.25;;;6.60;99.90;;;;;;5090113;28;20044;-67
2022/03/29 02:03:42;;;;;;;35.95;18.83;;;6.60;99.90;;;;;;5085653;28;20036;-67
2022/03/29 02:06:08;;;;;;;32.13;18.00;;;6.60;99.90;;;;;;5088581;28;20025;-67
2022/03/29 02:08:34;;;;;;;29.67;16.92;;;6.60;99.90;;;;;;5091511;28;20062;-67
2022/03/29 02:11:00;;;;;;;30.95;17.75;;;6.60;99.90;;;;;;5089418;28;20029;-66
2022/03/29 02:13:25;;;;;;;30.27;17.70;;;6.70;99.90;;;;;;5073649;28;20067;-65
2022/03/29 02:15:51;;;;;;;34.55;17.80;;;6.60;99.90;;;;;;5065622;28;20377;-66
2022/03/29 02:18:17;;;;;;;29.42;17.70;;;6.60;99.90;;;;;;5087772;28;20033;-66
2022/03/29 02:20:42;;;;;;;29.25;17.35;;;6.60;99.90;;;;;;5085536;28;20031;-67
2022/03/29 02:23:12;;;;;;;32.55;17.77;;;6.60;99.90;;;;;;5089605;28;20060;-66
2022/03/29 02:25:38;;;;;;;31.65;17.40;;;6.60;99.90;;;;;;5085947;28;20106;-66
2022/03/29 02:28:05;;;;;;;33.03;18.55;;;6.60;99.90;;;;;;5091678;28;20028;-66
2022/03/29 02:30:32;;;;;;;33.53;18.05;;;6.70;99.90;;;;;;5094031;28;20093;-66
2022/03/29 02:32:58;;;;;;;35.78;18.33;;;6.60;99.90;;;;;;5093747;28;20169;-66
2022/03/29 02:35:24;;;;;;;32.60;18.25;;;6.60;99.90;;;;;;5093472;28;20517;-66
2022/03/29 02:37:50;;;;;;;31.08;17.60;;;6.70;99.90;;;;;;5077168;28;20111;-66
2022/03/29 02:40:15;;;;;;;31.83;18.48;;;6.60;99.90;;;;;;5090459;28;20044;-66
2022/03/29 02:42:46;;;;;;;34.38;18.45;;;6.70;99.90;;;;;;5090887;28;20021;-69
2022/03/29 02:45:17;;;;;;;35.40;19.17;;;6.70;99.90;;;;;;5091313;28;20124;-69
2022/03/29 02:47:44;;;;;;;34.92;19.25;;;6.70;99.90;;;;;;5093433;28;20025;-69
2022/03/29 02:50:12;;;;;;;33.63;19.10;;;6.70;99.90;;;;;;5088347;28;20043;-69
2022/03/29 02:52:55;;;;;;;36.70;18.90;;;6.70;99.90;;;;;;5089052;28;20028;-69
2022/03/29 02:55:23;;;;;;;35.05;19.77;;;6.70;99.90;;;;;;5075712;28;20040;-69
2022/03/29 02:57:49;;;;;;;37.53;19.83;;;6.70;99.90;;;;;;5077968;28;20032;-68
2022/03/29 03:00:16;;;;;;;33.40;19.85;;;6.60;99.90;;;;;;5089941;28;20063;-68
2022/03/29 03:02:46;;;;;;;35.78;19.75;;;6.70;99.90;;;;;;5090514;28;20079;-69
2022/03/29 03:05:12;;;;;;;34.22;19.38;;;6.60;99.90;;;;;;5088326;28;20405;-69
2022/03/29 03:07:39;;;;;;;37.95;20.10;;;6.70;99.90;;;;;;5091163;28;20020;-69
2022/03/29 03:10:06;;;;;;;34.92;19.10;;;6.70;99.90;;;;;;5090575;28;20060;-68
2022/03/29 03:12:39;;;;;;;34.33;18.80;;;6.70;99.90;;;;;;5090463;28;20020;-69
2022/03/29 03:15:06;;;;;;;33.20;18.70;;;6.70;99.90;;;;;;5096629;28;20111;-69
2022/03/29 03:17:32;;;;;;;37.03;20.25;;;6.70;99.90;;;;;;5076102;28;20039;-69
2022/03/29 03:19:58;;;;;;;39.45;19.67;;;6.70;99.90;;;;;;5092028;28;20052;-66
2022/03/29 03:22:24;;;;;;;36.75;19.67;;;6.70;99.90;;;;;;5093242;28;20021;-67
2022/03/29 03:24:50;;;;;;;38.25;20.77;;;6.70;99.90;;;;;;5093360;28;20028;-68
2022/03/29 03:27:17;;;;;;;35.95;19.10;;;6.80;99.90;;;;;;5076336;28;20030;-67
2022/03/29 03:29:47;;;;;;;34.70;19.50;;;6.80;99.90;;;;;;5093180;28;20059;-67
2022/03/29 03:32:13;;;;;;;34.15;18.92;;;6.80;99.90;;;;;;5093340;28;20412;-67
2022/03/29 03:34:40;;;;;;;31.50;19.10;;;6.80;99.90;;;;;;5089699;28;20020;-67
2022/03/29 03:37:06;;;;;;;35.40;19.25;;;6.80;99.90;;;;;;5092621;28;20037;-67
2022/03/29 03:39:37;;;;;;;34.65;19.38;;;6.70;99.90;;;;;;5091424;28;20054;-67
2022/03/29 03:42:09;;;;;;;42.20;22.03;;;6.80;99.90;;;;;;5091837;28;20032;-67
2022/03/29 03:44:39;;;;;;;40.30;21.15;;;6.80;99.90;;;;;;5088235;28;20308;-67
2022/03/29 03:47:07;;;;;;;36.03;19.98;;;6.80;99.90;;;;;;5092807;28;20024;-67
2022/03/29 03:49:37;;;;;;;34.33;19.38;;;6.80;99.90;;;;;;5090454;28;20545;-67
2022/03/29 03:52:04;;;;;;;34.85;20.10;;;6.70;99.90;;;;;;5090912;28;20025;-68
2022/03/29 03:54:31;;;;;;;35.75;19.13;;;6.80;99.90;;;;;;5070684;28;20029;-67
2022/03/29 03:56:57;;;;;;;37.65;21.25;;;6.80;99.90;;;;;;5092122;28;20095;-67
2022/03/29 03:59:23;;;;;;;35.13;20.38;;;6.80;99.90;;;;;;5088890;28;21462;-67
2022/03/29 04:01:49;;;;;;;40.35;20.25;;;6.80;99.90;;;;;;5076302;28;20066;-67
2022/03/29 04:04:14;;;;;;;40.33;20.75;;;6.80;99.90;;;;;;5071876;28;20020;-67
2022/03/29 04:06:40;;;;;;;34.00;19.58;;;6.80;99.90;;;;;;5087881;28;20032;-67
2022/03/29 04:09:06;;;;;;;38.03;20.77;;;6.80;99.90;;;;;;5108179;28;20031;-68
2022/03/29 04:11:32;;;;;;;36.88;20.15;;;6.80;99.90;;;;;;5091424;28;20017;-67
2022/03/29 04:13:58;;;;;;;39.60;21.40;;;6.80;99.90;;;;;;5095543;28;20372;-67
2022/03/29 04:16:25;;;;;;;34.47;19.02;;;6.80;99.90;;;;;;5088696;28;20062;-67
2022/03/29 04:18:51;;;;;;;40.00;21.13;;;6.80;99.90;;;;;;5093061;28;20073;-67
2022/03/29 04:21:16;;;;;;;36.97;20.48;;;6.80;99.90;;;;;;5086801;28;20058;-67
2022/03/29 04:23:42;;;;;;;39.90;21.75;;;6.80;99.90;;;;;;5092206;28;20095;-67
2022/03/29 04:26:08;;;;;;;39.55;21.48;;;6.80;99.90;;;;;;5089141;28;20100;-67
2022/03/29 04:28:34;;;;;;;39.15;20.55;;;6.70;99.90;;;;;;5088515;28;20051;-67
2022/03/29 04:30:59;;;;;;;44.88;22.88;;;6.80;99.90;;;;;;5096467;28;20111;-67
2022/03/29 04:33:26;;;;;;;40.22;19.88;;;6.80;99.90;;;;;;5092816;28;20054;-68
2022/03/29 04:35:52;;;;;;;42.58;21.10;;;6.80;99.90;;;;;;5088763;28;20048;-67
2022/03/29 04:38:17;;;;;;;35.58;19.75;;;6.80;99.90;;;;;;5092143;28;20597;-67
2022/03/29 04:40:43;;;;;;;37.95;20.00;;;6.80;99.90;;;;;;5089961;28;20042;-67
2022/03/29 04:43:09;;;;;;;36.90;19.58;;;6.80;99.90;;;;;;5082849;28;20032;-67
2022/03/29 04:45:34;;;;;;;36.00;20.23;;;6.80;99.90;;;;;;5088351;28;20036;-67
2022/03/29 04:48:00;;;;;;;37.03;20.73;;;6.80;99.90;;;;;;5086187;28;20032;-67
2022/03/29 04:50:26;;;;;;;34.90;19.45;;;6.80;99.90;;;;;;5091865;28;20020;-67
2022/03/29 04:52:52;;;;;;;35.88;21.08;;;6.80;99.90;;;;;;5088014;28;20128;-67
2022/03/29 04:55:18;;;;;;;38.13;21.23;;;6.80;99.90;;;;;;5090151;28;20039;-67
2022/03/29 04:57:47;;;;;;;36.65;20.08;;;6.80;99.90;;;;;;5093207;28;20099;-67
2022/03/29 05:00:14;;;;;;;38.00;20.52;;;6.80;99.90;;;;;;5088301;28;20036;-67
2022/03/29 05:02:44;;;;;;;38.67;20.65;;;6.80;99.90;;;;;;5076705;28;20020;-67
2022/03/29 05:05:11;;;;;;;40.05;20.88;;;6.90;99.90;;;;;;5084084;28;20032;-67
2022/03/29 05:07:41;;;;;;;38.78;19.25;;;6.80;99.90;;;;;;5085718;28;20051;-67
2022/03/29 05:10:08;;;;;;;38.85;20.70;;;6.80;99.90;;;;;;5086569;28;20046;-67
2022/03/29 05:12:47;;;;;;;38.20;21.00;;;6.80;99.90;;;;;;5091781;28;20100;-67
2022/03/29 05:15:14;;;;;;;36.78;20.05;;;6.90;99.90;;;;;;5084235;28;20043;-67
2022/03/29 05:17:42;;;;;;;38.70;20.30;;;6.90;99.90;;;;;;5090614;28;20020;-67
2022/03/29 05:20:08;;;;;;;36.92;20.10;;;6.80;99.90;;;;;;5085810;28;20044;-67
2022/03/29 05:22:45;;;;;;;38.38;20.75;;;6.80;99.90;;;;;;5085013;28;20115;-70
2022/03/29 05:25:13;;;;;;;40.30;20.33;;;6.80;99.90;;;;;;5079737;28;20035;-67
2022/03/29 05:27:39;;;;;;;38.88;20.85;;;6.80;99.90;;;;;;5084138;28;20035;-68
2022/03/29 05:30:06;;;;;;;37.80;19.83;;;6.90;99.90;;;;;;5089962;28;20028;-68
2022/03/29 05:32:31;;;;;;;39.80;20.48;;;6.90;99.90;;;;;;5091648;28;20045;-67
2022/03/29 05:34:57;;;;;;;36.97;20.65;;;6.80;99.90;;;;;;5081027;28;20117;-66
2022/03/29 05:37:23;;;;;;;41.72;21.20;;;6.80;99.90;;;;;;5086782;28;20103;-67
2022/03/29 05:39:48;;;;;;;35.08;19.80;;;6.80;99.90;;;;;;5086487;28;20087;-67
2022/03/29 05:42:14;;;;;;;39.17;20.92;;;6.90;99.90;;;;;;5094205;28;20047;-66
2022/03/29 05:44:40;;;;;;;42.38;21.88;;;6.90;99.90;;;;;;5114791;28;20516;-66
2022/03/29 05:49:53;;;;;;;40.53;21.17;;;6.90;99.90;;;;;;5093740;28;20057;-66
2022/03/29 05:52:21;;;;;;;39.13;21.77;;;6.90;99.90;;;;;;5094592;28;20081;-66
2022/03/29 05:54:47;;;;;;;40.80;20.85;;;6.90;99.90;;;;;;5093720;28;20031;-66
2022/03/29 05:57:16;;;;;;;38.75;21.50;;;6.90;99.90;;;;;;5097160;28;20032;-66
2022/03/29 05:59:43;;;;;;;39.75;20.75;;;7.00;99.90;;;;;;5086263;28;20028;-66
2022/03/29 06:02:09;;;;;;;43.20;21.52;;;6.90;99.90;;;;;;5088590;28;20084;-66
2022/03/29 06:04:36;;;;;;;45.60;21.40;;;7.00;99.90;;;;;;5095258;28;20069;-66
2022/03/29 06:07:04;;;;;;;45.88;22.15;;;7.00;99.90;;;;;;5089988;28;20120;-66
2022/03/29 06:09:31;;;;;;;38.97;20.60;;;7.00;99.90;;;;;;5089619;28;20083;-66
2022/03/29 06:11:56;;;;;;;46.55;22.65;;;7.00;99.90;;;;;;5093718;28;20016;-66
2022/03/29 06:14:23;;;;;;;43.53;20.95;;;7.00;99.90;;;;;;5094506;28;20021;-66
2022/03/29 06:16:48;;;;;;;45.42;21.30;;;7.00;99.90;;;;;;5091559;28;20024;-66
2022/03/29 06:19:14;;;;;;;48.85;21.83;;;7.00;99.90;;;;;;5098214;28;20057;-66
2022/03/29 06:21:40;;;;;;;40.50;20.55;;;7.00;99.90;;;;;;5087541;28;20107;-66
2022/03/29 06:24:09;;;;;;;45.33;21.33;;;7.00;99.90;;;;;;5095592;28;20130;-66
2022/03/29 06:26:41;;;;;;;45.85;22.60;;;7.10;99.90;;;;;;5095195;28;20047;-66
2022/03/29 06:29:09;;;;;;;49.35;23.30;;;7.10;99.90;;;;;;5081927;28;20097;-66
2022/03/29 06:31:35;;;;;;;43.53;22.90;;;7.10;99.90;;;;;;5071625;28;20082;-66
2022/03/29 06:34:01;;;;;;;46.13;22.40;;;7.20;99.90;;;;;;5093199;28;20024;-66
2022/03/29 06:36:27;;;;;;;46.15;22.85;;;7.20;99.90;;;;;;5097186;28;20548;-66
2022/03/29 06:38:53;;;;;;;45.88;22.83;;;7.20;99.90;;;;;;5087354;28;20061;-66
2022/03/29 06:41:19;;;;;;;44.58;21.83;;;7.30;99.90;;;;;;5096550;28;20039;-66
2022/03/29 06:43:47;;;;;;;42.88;22.10;;;7.40;99.90;;;;;;5097182;28;20034;-66
2022/03/29 06:46:13;;;;;;;41.00;21.38;;;7.40;99.90;;;;;;5092736;28;20032;-84
2022/03/29 06:48:41;;;;;;;44.63;21.05;;;7.40;99.90;;;;;;5081603;28;20028;-82
2022/03/29 06:51:09;;;;;;;53.42;22.42;;;7.40;99.90;;;;;;5092426;28;20024;-66
2022/03/29 06:53:38;;;;;;;46.97;24.25;;;7.40;99.90;;;;;;5091146;28;20036;-66
2022/03/29 06:56:04;;;;;;;46.55;22.02;;;7.40;99.90;;;;;;5086540;28;20127;-66
2022/03/29 06:58:30;;;;;;;48.03;21.85;;;7.30;99.90;;;;;;5096842;28;20050;-66
2022/03/29 07:00:57;;;;;;;43.63;21.20;;;7.40;99.90;;;;;;5098582;28;20073;-66
2022/03/29 07:03:23;;;;;;;45.58;21.33;;;7.60;99.90;;;;;;5084467;28;20040;-66
2022/03/29 07:05:50;;;;;;;46.08;22.33;;;7.70;99.90;;;;;;5086258;28;20028;-66
2022/03/29 07:08:18;;;;;;;43.95;22.10;;;7.80;99.90;;;;;;5092273;28;20032;-66
2022/03/29 07:13:28;;;;;;;43.83;22.35;;;8.00;99.90;;;;;;5088209;28;20054;-66
2022/03/29 07:15:54;;;;;;;43.00;20.85;;;8.20;99.90;;;;;;5091154;28;20040;-66
2022/03/29 07:18:20;;;;;;;42.60;20.73;;;8.20;99.90;;;;;;5095188;28;20458;-66
2022/03/29 07:20:46;;;;;;;41.08;19.98;;;8.00;99.90;;;;;;5086125;28;20028;-66
2022/03/29 07:23:12;;;;;;;41.70;21.67;;;8.20;99.90;;;;;;5084798;28;20028;-66
2022/03/29 07:25:37;;;;;;;40.42;19.27;;;8.30;99.90;;;;;;5096908;28;20025;-66
2022/03/29 07:28:04;;;;;;;39.70;19.58;;;8.30;99.90;;;;;;5082477;28;20024;-66
2022/03/29 07:30:33;;;;;;;47.17;22.27;;;8.60;99.90;;;;;;5098560;28;20020;-66
2022/03/29 07:32:59;;;;;;;45.55;21.15;;;8.70;99.90;;;;;;5078960;28;20036;-67
2022/03/29 07:35:28;;;;;;;43.83;21.20;;;8.80;99.90;;;;;;5091872;28;20042;-65
2022/03/29 07:37:54;;;;;;;42.42;21.27;;;8.90;99.90;;;;;;5095977;28;20040;-67
2022/03/29 07:40:23;;;;;;;47.75;21.95;;;9.20;99.90;;;;;;5091618;28;20541;-65
2022/03/29 07:42:51;;;;;;;41.47;21.58;;;9.80;99.90;;;;;;5097173;28;20024;-68
2022/03/29 07:45:18;;;;;;;44.53;22.55;;;9.90;99.90;;;;;;5103516;28;20024;-66
2022/03/29 07:47:45;;;;;;;42.13;22.45;;;10.00;99.90;;;;;;5100257;28;20039;-65
2022/03/29 07:50:12;;;;;;;49.13;23.08;;;9.90;99.90;;;;;;5102812;28;20454;-66
2022/03/29 07:52:42;;;;;;;43.45;22.08;;;9.80;99.90;;;;;;5099730;28;20024;-66
2022/03/29 07:55:10;;;;;;;46.63;23.08;;;9.60;99.90;;;;;;5101122;28;20012;-66
2022/03/29 07:57:36;;;;;;;48.78;24.00;;;9.80;99.90;;;;;;5091840;28;20029;-67
2022/03/29 08:00:31;;;;;;;42.67;22.58;;;9.90;99.90;;;;;;5090802;28;20401;-66
2022/03/29 08:02:49;;;;;;;47.40;24.23;;;9.80;99.90;;;;;;5082009;28;20036;-66
2022/03/29 08:05:15;;;;;;;50.20;24.48;;;9.60;99.90;;;;;;5082431;28;20109;-66
2022/03/29 08:07:41;;;;;;;51.22;24.73;;;9.50;99.90;;;;;;5100449;28;20028;-66
2022/03/29 08:10:07;;;;;;;44.55;22.80;;;9.60;99.90;;;;;;5103256;28;20390;-66
2022/03/29 08:12:34;;;;;;;52.65;24.33;;;9.60;99.90;;;;;;5100151;28;20020;-66
2022/03/29 08:15:00;;;;;;;46.80;23.60;;;9.60;99.90;;;;;;5101709;28;20028;-66
2022/03/29 08:17:26;;;;;;;44.38;23.15;;;9.50;99.90;;;;;;5099514;28;20121;-66
2022/03/29 08:19:52;;;;;;;45.08;22.60;;;9.50;99.90;;;;;;5096496;28;20074;-66
2022/03/29 08:22:18;;;;;;;48.63;23.77;;;9.60;99.90;;;;;;5094242;28;20083;-66
2022/03/29 08:24:44;;;;;;;46.45;22.52;;;9.60;99.90;;;;;;5099915;28;20062;-66
2022/03/29 08:27:10;;;;;;;43.03;22.00;;;9.60;99.90;;;;;;5101119;28;20027;-66
2022/03/29 08:29:36;;;;;;;41.28;22.35;;;9.80;99.90;;;;;;5085743;28;20020;-66
2022/03/29 08:32:02;;;;;;;41.03;21.85;;;9.90;99.90;;;;;;5088627;28;20027;-66
2022/03/29 08:34:28;;;;;;;47.67;23.40;;;9.80;99.90;;;;;;5101318;28;20119;-67
2022/03/29 08:36:54;;;;;;;39.92;20.67;;;9.60;99.90;;;;;;5083244;28;20526;-67
2022/03/29 08:39:19;;;;;;;45.78;22.70;;;10.00;99.90;;;;;;5066237;28;20072;-67
2022/03/29 08:41:52;;;;;;;44.35;22.27;;;10.20;99.90;;;;;;5080361;28;20024;-67
2022/03/29 08:44:18;;;;;;;51.60;22.38;;;10.20;99.90;;;;;;5082255;28;20187;-66
2022/03/29 08:46:46;;;;;;;41.10;22.40;;;9.90;99.90;;;;;;5081090;28;20032;-67
2022/03/29 08:49:15;;;;;;;42.05;20.35;;;10.00;99.90;;;;;;5084322;28;20514;-66
2022/03/29 08:51:41;;;;;;;41.20;20.45;;;9.80;99.90;;;;;;5101176;28;20023;-67
2022/03/29 08:54:07;;;;;;;41.78;20.85;;;9.90;99.90;;;;;;5102174;28;20040;-67
2022/03/29 08:56:33;;;;;;;45.03;21.35;;;9.90;99.90;;;;;;5100093;28;20425;-66
2022/03/29 08:59:01;;;;;;;43.80;21.02;;;10.20;99.90;;;;;;5099844;28;20103;-66
2022/03/29 09:01:27;;;;;;;41.03;20.58;;;10.40;99.90;;;;;;5097215;28;20080;-67
2022/03/29 09:04:11;;;;;;;42.08;19.98;;;10.30;99.90;;;;;;5078514;28;20107;-67
2022/03/29 09:06:56;;;;;;;47.65;19.73;;;10.50;99.90;;;;;;5080355;28;20032;-67
2022/03/29 09:09:33;;;;;;;46.35;20.15;;;10.90;99.90;;;;;;5080779;28;20032;-67
2022/03/29 09:12:13;;;;;;;37.22;19.15;;;12.10;99.90;;;;;;5093487;28;20078;-67
2022/03/29 09:14:59;;;;;;;43.30;18.98;;;13.70;99.90;;;;;;5080456;28;20024;-67
2022/03/29 09:17:32;;;;;;;31.42;16.80;;;13.50;99.90;;;;;;5080343;28;20383;-66
2022/03/29 09:20:10;;;;;;;39.15;17.17;;;13.70;99.90;;;;;;5080915;28;20052;-67
2022/03/29 09:22:53;;;;;;;35.95;17.92;;;13.40;99.90;;;;;;5094140;28;20486;-67
2022/03/29 09:25:21;;;;;;;34.33;17.85;;;13.20;99.90;;;;;;5080084;28;20032;-67
2022/03/29 09:27:57;;;;;;;35.67;17.15;;;12.90;99.90;;;;;;5098239;28;20077;-67
2022/03/29 09:30:25;;;;;;;36.67;17.80;;;12.00;99.90;;;;;;5100588;28;20434;-67
2022/03/29 09:32:54;;;;;;;36.25;19.15;;;12.10;99.90;;;;;;5086064;28;20012;-68
2022/03/29 09:35:20;;;;;;;34.10;18.23;;;12.60;99.90;;;;;;5101232;28;20028;-67
2022/03/29 09:37:46;;;;;;;42.58;18.33;;;12.60;99.90;;;;;;5100184;28;20048;-67
2022/03/29 09:40:12;;;;;;;38.72;18.48;;;12.90;99.90;;;;;;5067094;28;20028;-67
2022/03/29 09:42:42;;;;;;;38.58;18.50;;;12.70;99.90;;;;;;5085266;28;20120;-67
2022/03/29 09:45:08;;;;;;;37.80;18.83;;;12.70;99.90;;;;;;5083049;28;20043;-67
2022/03/29 09:47:35;;;;;;;42.10;19.23;;;12.90;99.90;;;;;;5100712;28;20016;-67
2022/03/29 09:50:09;;;;;;;35.47;19.42;;;12.60;99.90;;;;;;5099515;28;20016;-67
2022/03/29 09:52:40;;;;;;;36.67;19.30;;;12.60;99.90;;;;;;5087668;28;20035;-67
2022/03/29 09:55:16;;;;;;;42.43;18.80;;;12.30;99.90;;;;;;5093520;28;20029;-67
2022/03/29 09:57:43;;;;;;;36.08;17.90;;;13.00;99.90;;;;;;5101471;28;20030;-67
2022/03/29 10:00:13;;;;;;;34.47;19.13;;;13.20;99.90;;;;;;5099949;28;20040;-67
2022/03/29 10:02:40;;;;;;;36.00;19.05;;;13.00;99.90;;;;;;5095979;28;20023;-67
2022/03/29 10:05:09;;;;;;;36.15;18.80;;;13.00;99.90;;;;;;5093252;28;20028;-66
2022/03/29 10:07:44;;;;;;;38.47;20.17;;;13.00;99.90;;;;;;5092439;28;20029;-67
2022/03/29 10:10:11;;;;;;;44.33;20.52;;;12.70;99.90;;;;;;5101327;28;20038;-67
2022/03/29 10:12:37;;;;;;;38.30;19.50;;;12.50;99.90;;;;;;5090922;28;20106;-67
2022/03/29 10:15:04;;;;;;;39.00;19.83;;;12.40;99.90;;;;;;5089526;28;20516;-67
2022/03/29 10:17:30;;;;;;;38.85;21.13;;;12.70;99.90;;;;;;5086025;28;20099;-67
2022/03/29 10:19:59;;;;;;;40.00;20.95;;;12.70;99.90;;;;;;5088881;28;20062;-67
2022/03/29 10:22:25;;;;;;;41.13;19.95;;;12.40;99.90;;;;;;5084390;28;20028;-67
2022/03/29 10:24:51;;;;;;;38.83;19.55;;;12.50;99.90;;;;;;5084813;28;20017;-67
2022/03/29 10:27:19;;;;;;;31.17;18.30;;;12.50;99.90;;;;;;5087293;28;20506;-67
2022/03/29 10:29:45;;;;;;;41.10;18.92;;;12.20;99.90;;;;;;5089289;28;20159;-67
2022/03/29 10:32:26;;;;;;;33.45;18.60;;;12.90;99.90;;;;;;5109662;28;20090;-66
2022/03/29 10:35:07;;;;;;;38.47;18.33;;;12.80;99.90;;;;;;5083457;28;20040;-69
2022/03/29 10:37:56;;;;;;;38.30;19.83;;;13.10;99.90;;;;;;5088134;28;20060;-67
2022/03/29 10:40:39;;;;;;;37.08;18.98;;;14.30;99.90;;;;;;5091389;28;20032;-74
2022/03/29 10:43:25;;;;;;;34.33;17.92;;;15.20;99.90;;;;;;5089023;28;20021;-81
2022/03/29 10:45:51;;;;;;;30.55;17.77;;;15.30;96.20;;;;;;5086694;28;20730;-67
2022/03/29 10:48:17;;;;;;;33.83;17.88;;;15.60;99.90;;;;;;5084564;28;20069;-66
2022/03/29 10:50:57;;;;;;;31.02;18.77;;;16.00;96.80;;;;;;5086374;28;20016;-67
2022/03/29 10:53:27;;;;;;;31.05;18.20;;;16.00;97.80;;;;;;5090764;28;20024;-67
2022/03/29 10:56:15;;;;;;;43.20;18.80;;;16.00;95.70;;;;;;5101454;28;20052;-67
2022/03/29 10:59:02;;;;;;;31.63;18.42;;;16.30;98.40;;;;;;5101176;28;20028;-67
2022/03/29 11:01:33;;;;;;;37.28;19.27;;;16.20;92.30;;;;;;5084354;28;20041;-67
2022/03/29 11:04:00;;;;;;;32.20;18.27;;;15.60;89.70;;;;;;5087230;28;20028;-67
2022/03/29 11:06:26;;;;;;;30.30;17.42;;;15.20;95.50;;;;;;5104235;28;20053;-67
2022/03/29 11:09:05;;;;;;;32.70;17.58;;;16.00;97.30;;;;;;5101918;28;20088;-67
2022/03/29 11:11:39;;;;;;;37.45;19.08;;;17.50;80.00;;;;;;5084987;28;20052;-67
2022/03/29 11:14:34;;;;;;;30.60;17.60;;;18.00;80.70;;;;;;5083594;28;20433;-67
2022/03/29 11:17:09;;;;;;;30.25;17.65;;;18.60;60.70;;;;;;5082295;28;20021;-66
2022/03/29 11:19:51;;;;;;;33.20;17.85;;;19.10;54.80;;;;;;5092940;28;20082;-67
2022/03/29 11:22:43;;;;;;;32.72;17.48;;;20.00;52.00;;;;;;5102001;28;20044;-67
2022/03/29 11:25:10;;;;;;;;;;;22.00;55.40;;;;;;5103101;28;20035;-67
2022/03/29 11:27:38;;;;;;;31.02;17.73;;;21.00;45.30;;;;;;5102497;28;19912;-67
2022/03/29 11:30:07;;;;;;;31.50;17.85;;;22.00;47.50;;;;;;5091242;28;20095;-67
2022/03/29 11:32:34;;;;;;;30.42;17.88;;;22.30;44.50;;;;;;5100620;28;20024;-67
2022/03/29 11:35:02;;;;;;;27.25;17.00;;;21.60;42.20;;;;;;5102829;28;20031;-67
2022/03/29 11:37:28;;;;;;;31.40;16.52;;;21.30;43.80;;;;;;5102251;28;20063;-67
2022/03/29 11:39:54;;;;;;;28.60;16.48;;;20.20;46.60;;;;;;5100239;28;20054;-68
2022/03/29 11:42:20;;;;;;;29.10;17.77;;;19.80;46.70;;;;;;5087827;28;20038;-67
2022/03/29 11:44:51;;;;;;;37.53;16.75;;;20.00;47.30;;;;;;5098794;28;20084;-67
2022/03/29 11:47:17;;;;;;;30.40;16.55;;;20.50;46.40;;;;;;5082063;28;20413;-67
2022/03/29 11:49:45;;;;;;;29.80;17.67;;;21.30;46.40;;;;;;5082875;28;20022;-67
2022/03/29 11:52:14;;;;;;;32.38;16.77;;;22.30;46.60;;;;;;5088639;28;20032;-67
2022/03/29 11:54:48;;;;;;;27.55;17.13;;;22.90;43.70;;;;;;5090790;28;20025;-67
2022/03/29 11:57:33;;;;;;;26.80;17.60;;;23.00;43.60;;;;;;5083400;28;20036;-67
2022/03/29 11:59:59;;;;;;;30.48;17.38;;;23.70;44.90;;;;;;5089198;28;20067;-67
2022/03/29 12:02:26;;;;;;;29.65;17.33;;;23.90;42.10;;;;;;5091951;28;20517;-67
2022/03/29 12:04:53;;;;;;;31.48;17.33;;;23.60;40.80;;;;;;5081895;28;20403;-67
2022/03/29 12:07:37;;;;;;;30.55;16.85;;;23.90;42.10;;;;;;5101145;28;20036;-67
2022/03/29 12:10:03;;;;;;;29.27;17.05;;;22.20;42.30;;;;;;5101152;28;20031;-67
2022/03/29 12:12:28;;;;;;;26.75;16.35;;;21.40;43.00;;;;;;5101658;28;20020;-67
2022/03/29 12:15:06;;;;;;;29.50;16.70;;;20.30;46.30;;;;;;5095945;28;20025;-67
2022/03/29 12:17:34;;;;;;;30.70;16.48;;;19.50;50.00;;;;;;5081900;28;20029;-67
2022/03/29 12:20:00;;;;;;;32.13;16.83;;;19.50;50.00;;;;;;5080552;28;20036;-67
2022/03/29 12:22:29;;;;;;;30.67;16.00;;;20.50;49.30;;;;;;5097641;28;20547;-67
2022/03/29 12:24:57;;;;;;;27.98;17.40;;;20.20;47.20;;;;;;5083253;28;20091;-67
2022/03/29 12:27:23;;;;;;;27.33;15.60;;;18.70;47.50;;;;;;5090207;28;20043;-68
2022/03/29 12:30:00;;;;;;;28.63;15.40;;;19.10;50.20;;;;;;5080934;28;20032;-67
2022/03/29 12:32:26;;;;;;;28.42;14.80;;;18.20;50.00;;;;;;5081583;28;20029;-68
2022/03/29 12:34:59;;;;;;;30.50;16.08;;;17.90;52.20;;;;;;5081295;28;20031;-67
2022/03/29 12:37:27;;;;;;;27.08;15.50;;;16.90;54.20;;;;;;5100747;28;20087;-67
2022/03/29 12:40:09;;;;;;;29.80;14.63;;;17.10;60.30;;;;;;5093615;28;20059;-67
2022/03/29 12:42:35;;;;;;;28.85;15.60;;;16.80;61.80;;;;;;5079365;28;20028;-67
2022/03/29 12:45:03;;;;;;;30.58;14.55;;;17.00;57.40;;;;;;5081933;28;20029;-67
2022/03/29 12:47:31;;;;;;;27.90;14.10;;;16.90;60.20;;;;;;5087965;28;20020;-67